Time;durP1;ratioP1;P1;durP2;ratioP2;P2;SDS_P1;SDS_P2;PMS_P1;PMS_P2;Temp;Humidity;BMP_temperature;BMP_pressure;BME280_temperature;BME280_humidity;BME280_pressure;Samples;Min_cycle;Max_cycle;Signal;HPM_P1;HPM_P2
2022/06/05 00:00:14;;;;;;;6.47;5.97;;;;;;;16.88;59.05;101208.63;5052061;28;20216;-72
2022/06/05 00:02:53;;;;;;;5.73;5.33;;;;;;;16.85;59.23;101190.31;5052797;28;20236;-72
2022/06/05 00:05:27;;;;;;;6.57;6.00;;;;;;;16.79;59.47;101186.06;5052412;28;20294;-72
2022/06/05 00:08:02;;;;;;;6.50;6.00;;;;;;;16.75;59.50;101183.53;5052586;28;20292;-72
2022/06/05 00:10:34;;;;;;;6.47;5.97;;;;;;;16.72;59.91;101179.25;5052397;28;20299;-72
2022/06/05 00:13:07;;;;;;;6.37;5.87;;;;;;;16.70;59.78;101178.44;5052484;28;20665;-72
2022/06/05 00:15:34;;;;;;;6.60;6.20;;;;;;;16.65;60.08;101157.50;5052068;28;20233;-72
2022/06/05 00:18:02;;;;;;;6.70;6.20;;;;;;;16.58;60.51;101160.38;5051871;28;20209;-72
2022/06/05 00:20:28;;;;;;;7.33;6.83;;;;;;;16.56;60.24;101149.88;5052194;28;20205;-72
2022/06/05 00:22:55;;;;;;;6.73;6.20;;;;;;;16.52;60.58;101140.34;5051821;28;20208;-72
2022/06/05 00:25:22;;;;;;;7.37;6.60;;;;;;;16.46;61.04;101130.88;5052198;28;20232;-72
2022/06/05 00:27:54;;;;;;;7.07;6.37;;;;;;;16.42;61.07;101117.84;5051684;28;20618;-72
2022/06/05 00:30:27;;;;;;;7.10;6.60;;;;;;;16.37;61.18;101106.59;5051683;28;20266;-72
2022/06/05 00:33:02;;;;;;;6.27;5.83;;;;;;;16.35;61.31;101108.41;5051585;28;20205;-72
2022/06/05 00:35:33;;;;;;;6.93;6.43;;;;;;;16.30;61.71;101097.19;5051935;28;20278;-72
2022/06/05 00:38:06;;;;;;;6.90;6.40;;;;;;;16.26;61.84;101088.50;5051969;28;20216;-72
2022/06/05 00:40:41;;;;;;;5.97;5.57;;;;;;;16.19;62.12;101086.97;5051639;28;20224;-72
2022/06/05 00:43:11;;;;;;;6.77;6.20;;;;;;;16.15;62.66;101072.16;5051707;28;20272;-72
2022/06/05 00:45:39;;;;;;;6.40;5.90;;;;;;;16.07;62.55;101052.22;5031832;28;20229;-72
2022/06/05 00:48:06;;;;;;;7.50;6.90;;;;;;;16.07;62.33;101046.97;5031612;28;20215;-72
2022/06/05 00:50:35;;;;;;;6.80;6.30;;;;;;;16.04;62.74;101033.88;5031543;28;20263;-72
2022/06/05 00:53:04;;;;;;;7.57;6.43;;;;;;;16.00;63.36;101034.88;5031703;28;20687;-72
2022/06/05 00:55:35;;;;;;;6.70;6.10;;;;;;;15.99;63.29;101019.13;5032029;28;20628;-72
2022/06/05 00:58:02;;;;;;;6.80;6.30;;;;;;;15.99;63.18;101013.88;5039714;28;20291;-72
2022/06/05 01:00:31;;;;;;;6.67;6.17;;;;;;;15.97;63.53;101011.28;5051314;28;20624;-72
2022/06/05 01:03:00;;;;;;;7.50;6.83;;;;;;;15.93;63.78;101006.16;5051536;28;20744;-72
2022/06/05 01:05:28;;;;;;;7.33;6.77;;;;;;;15.90;63.82;100993.97;5051489;28;20632;-72
2022/06/05 01:07:56;;;;;;;6.60;6.10;;;;;;;15.86;64.34;100976.56;5051526;28;20243;-72
2022/06/05 01:10:42;;;;;;;6.67;6.17;;;;;;;15.85;64.29;100967.75;5051603;28;20206;-72
2022/06/05 01:13:23;;;;;;;6.50;5.97;;;;;;;15.79;64.58;100960.06;5048318;28;20200;-72
2022/06/05 01:15:57;;;;;;;7.07;6.57;;;;;;;15.72;64.96;100958.53;5042147;28;20309;-72
2022/06/05 01:18:31;;;;;;;6.87;6.37;;;;;;;15.71;65.28;100954.16;5041624;28;20261;-72
2022/06/05 01:21:12;;;;;;;6.73;6.33;;;;;;;15.69;65.23;100942.81;5042107;28;20292;-72
2022/06/05 01:23:53;;;;;;;7.10;6.53;;;;;;;15.66;65.32;100940.31;5042413;28;20200;-72
2022/06/05 01:26:30;;;;;;;6.70;6.20;;;;;;;15.59;65.59;100936.13;5041911;28;20215;-72
2022/06/05 01:29:01;;;;;;;7.37;6.57;;;;;;;15.57;65.59;100923.03;5042668;28;20207;-72
2022/06/05 01:31:32;;;;;;;6.73;6.23;;;;;;;15.58;65.75;100915.97;5046357;28;20213;-72
2022/06/05 01:34:11;;;;;;;6.93;6.33;;;;;;;15.56;66.17;100923.94;5042529;28;20213;-72
2022/06/05 01:36:45;;;;;;;6.93;6.53;;;;;;;15.56;66.19;100920.44;5039847;28;20190;-72
2022/06/05 01:39:16;;;;;;;7.30;6.80;;;;;;;15.55;66.12;100916.94;5039917;28;20614;-72
2022/06/05 01:41:48;;;;;;;6.70;6.20;;;;;;;15.54;66.36;100906.47;5041925;28;20334;-72
2022/06/05 01:44:18;;;;;;;6.40;5.90;;;;;;;15.48;66.54;100903.13;5043147;28;20228;-72
2022/06/05 01:46:45;;;;;;;6.83;6.40;;;;;;;15.44;66.63;100898.00;5044208;28;20193;-72
2022/06/05 01:49:16;;;;;;;8.00;7.17;;;;;;;15.42;66.80;100902.47;5045742;28;20217;-72
2022/06/05 01:51:49;;;;;;;8.10;7.40;;;;;;;15.34;67.13;100892.19;5045816;28;20200;-72
2022/06/05 01:54:20;;;;;;;7.80;7.20;;;;;;;15.32;67.20;100879.97;5045743;28;20225;-72
2022/06/05 01:56:53;;;;;;;7.57;6.87;;;;;;;15.28;67.20;100872.22;5044603;28;20201;-72
2022/06/05 01:59:25;;;;;;;7.53;6.93;;;;;;;15.25;67.23;100864.41;5046516;28;20270;-72
2022/06/05 02:01:56;;;;;;;8.00;7.30;;;;;;;15.23;67.49;100871.47;5051370;28;20685;-72
2022/06/05 02:04:30;;;;;;;7.30;6.80;;;;;;;15.18;67.63;100862.00;5045747;28;20225;-72
2022/06/05 02:07:02;;;;;;;7.83;7.30;;;;;;;15.12;67.93;100852.53;5045680;28;20215;-72
2022/06/05 02:09:32;;;;;;;7.20;6.70;;;;;;;15.12;67.95;100846.44;5043768;28;20592;-72
2022/06/05 02:12:03;;;;;;;7.23;6.63;;;;;;;15.10;68.33;100846.47;5046003;28;20205;-72
2022/06/05 02:14:30;;;;;;;7.40;6.90;;;;;;;15.05;68.32;100833.47;5043709;28;20229;-72
2022/06/05 02:16:57;;;;;;;7.53;6.93;;;;;;;15.06;68.53;100839.59;5045507;28;20193;-72
2022/06/05 02:19:24;;;;;;;7.43;6.90;;;;;;;15.05;68.63;100822.09;5043308;28;20203;-72
2022/06/05 02:21:55;;;;;;;7.53;6.70;;;;;;;15.01;68.58;100829.22;5045537;28;20666;-72
2022/06/05 02:24:21;;;;;;;7.13;6.63;;;;;;;14.99;68.35;100828.41;5044889;28;20224;-72
2022/06/05 02:26:48;;;;;;;6.73;6.23;;;;;;;14.97;68.27;100829.38;5044019;28;20200;-72
2022/06/05 02:29:21;;;;;;;7.97;7.47;;;;;;;14.93;68.72;100828.59;5045274;28;20215;-72
2022/06/05 02:31:59;;;;;;;6.80;6.30;;;;;;;14.91;68.85;100819.06;5050495;28;20198;-72
2022/06/05 02:34:35;;;;;;;7.43;6.93;;;;;;;14.88;68.71;100833.13;5044418;28;20232;-72
2022/06/05 02:37:12;;;;;;;7.20;6.60;;;;;;;14.85;68.76;100820.09;5045177;28;20196;-72
2022/06/05 02:39:46;;;;;;;7.87;6.87;;;;;;;14.78;69.29;100819.41;5046315;28;20654;-72
2022/06/05 02:42:25;;;;;;;7.23;6.63;;;;;;;14.73;69.42;100802.03;5044330;28;20273;-72
2022/06/05 02:45:01;;;;;;;7.40;6.90;;;;;;;14.67;69.62;100790.84;5044509;28;20837;-72
2022/06/05 02:47:35;;;;;;;7.50;6.97;;;;;;;14.62;70.17;100786.63;5044771;28;20205;-72
2022/06/05 02:50:10;;;;;;;7.03;6.53;;;;;;;14.57;70.02;100778.88;5044009;28;20228;-72
2022/06/05 02:52:38;;;;;;;7.80;7.10;;;;;;;14.54;70.45;100775.44;5044770;28;20190;-72
2022/06/05 02:55:08;;;;;;;7.30;6.60;;;;;;;14.52;70.85;100766.75;5042507;28;20285;-72
2022/06/05 02:57:35;;;;;;;8.93;8.23;;;;;;;14.50;70.90;100754.50;5043958;28;20204;-72
2022/06/05 03:00:07;;;;;;;7.47;6.77;;;;;;;14.48;70.70;100763.34;5047792;28;20614;-72
2022/06/05 03:05:17;;;;;;;7.20;6.57;;;;;;;14.40;71.18;100760.94;5044415;28;20611;-72
2022/06/05 03:07:44;;;;;;;8.33;7.63;;;;;;;14.38;70.86;100762.75;5044814;28;20211;-72
2022/06/05 03:10:11;;;;;;;7.80;7.20;;;;;;;14.30;71.79;100759.50;5053333;28;20207;-72
2022/06/05 03:12:37;;;;;;;7.60;7.10;;;;;;;14.35;71.58;100751.50;5053603;28;20545;-72
2022/06/05 03:15:07;;;;;;;7.13;6.63;;;;;;;14.35;71.37;100755.00;5053045;28;20268;-72
2022/06/05 03:17:34;;;;;;;6.60;6.00;;;;;;;14.34;70.83;100763.75;5053127;28;20258;-72
2022/06/05 03:20:01;;;;;;;7.10;6.60;;;;;;;14.35;70.95;100762.88;5052548;28;20207;-72
2022/06/05 03:22:27;;;;;;;7.03;6.43;;;;;;;14.38;70.86;100767.16;5053319;28;20616;-72
2022/06/05 03:24:54;;;;;;;8.07;7.37;;;;;;;14.37;70.96;100765.44;5053224;28;20625;-72
2022/06/05 03:27:20;;;;;;;7.20;6.60;;;;;;;14.36;71.08;100758.47;5053117;28;20257;-72
2022/06/05 03:29:48;;;;;;;7.20;6.60;;;;;;;14.32;71.25;100747.19;5052799;28;20207;-72
2022/06/05 03:32:15;;;;;;;7.60;6.90;;;;;;;14.32;71.12;100746.34;5052570;28;20196;-72
2022/06/05 03:34:42;;;;;;;7.63;7.03;;;;;;;14.30;71.59;100749.00;5052670;28;20377;-72
2022/06/05 03:37:08;;;;;;;6.53;6.03;;;;;;;14.26;71.59;100740.34;5052917;28;20261;-72
2022/06/05 03:39:35;;;;;;;6.50;6.00;;;;;;;14.25;71.54;100736.03;5052718;28;20210;-72
2022/06/05 03:42:01;;;;;;;6.37;5.87;;;;;;;14.24;71.54;100746.56;5052798;28;20215;-72
2022/06/05 03:44:28;;;;;;;7.07;6.47;;;;;;;14.23;71.07;100753.59;5052885;28;20230;-72
2022/06/05 03:46:54;;;;;;;6.73;6.23;;;;;;;14.23;71.26;100758.84;5052959;28;20253;-72
2022/06/05 03:49:22;;;;;;;6.80;6.30;;;;;;;14.21;71.45;100760.66;5052432;28;20202;-72
2022/06/05 03:51:49;;;;;;;7.13;6.53;;;;;;;14.22;71.19;100766.75;5052632;28;20624;-72
2022/06/05 03:54:15;;;;;;;6.47;5.97;;;;;;;14.24;71.47;100759.69;5052739;28;20255;-72
2022/06/05 03:56:42;;;;;;;6.73;6.23;;;;;;;14.25;71.12;100753.53;5052771;28;20616;-72
2022/06/05 03:59:08;;;;;;;6.73;6.23;;;;;;;14.24;71.01;100749.19;5052494;28;20209;-72
2022/06/05 04:01:35;;;;;;;7.30;6.60;;;;;;;14.25;71.44;100750.88;5052557;28;20617;-72
2022/06/05 04:04:01;;;;;;;6.67;6.17;;;;;;;14.25;71.38;100740.38;5052452;28;20216;-72
2022/06/05 04:06:31;;;;;;;6.70;6.20;;;;;;;14.25;71.14;100736.03;5051785;28;20286;-72
2022/06/05 04:08:59;;;;;;;6.40;6.00;;;;;;;14.27;71.20;100731.59;5051891;28;20893;-72
2022/06/05 04:11:29;;;;;;;6.47;6.07;;;;;;;14.28;71.41;100724.56;5052491;28;20261;-72
2022/06/05 04:13:55;;;;;;;6.57;6.17;;;;;;;14.28;71.28;100727.19;5052043;28;20214;-72
2022/06/05 04:16:25;;;;;;;6.83;6.23;;;;;;;14.29;71.38;100716.63;5052476;28;20228;-72
2022/06/05 04:18:52;;;;;;;6.87;6.37;;;;;;;14.29;71.31;100705.25;5052022;28;20208;-72
2022/06/05 04:21:21;;;;;;;6.40;5.90;;;;;;;14.29;71.30;100724.53;5052624;28;20210;-72
2022/06/05 04:23:50;;;;;;;7.00;6.40;;;;;;;14.29;71.44;100719.25;5051777;28;20254;-72
2022/06/05 04:26:19;;;;;;;6.47;5.97;;;;;;;14.33;71.95;100703.41;5051902;28;20211;-72
2022/06/05 04:28:46;;;;;;;6.17;5.67;;;;;;;14.35;71.74;100694.59;5051818;28;20689;-72
2022/06/05 04:31:18;;;;;;;5.93;5.43;;;;;;;14.38;71.86;100699.72;5052130;28;20211;-72
2022/06/05 04:33:44;;;;;;;6.00;5.60;;;;;;;14.42;71.83;100700.50;5051890;28;20200;-72
2022/06/05 04:36:11;;;;;;;6.57;6.10;;;;;;;14.43;71.69;100703.09;5052128;28;20640;-72
2022/06/05 04:38:37;;;;;;;6.27;5.70;;;;;;;14.47;71.52;100702.09;5052037;28;20241;-72
2022/06/05 04:41:05;;;;;;;6.10;5.70;;;;;;;14.51;71.09;100708.13;5051654;28;20203;-72
2022/06/05 04:43:31;;;;;;;9.13;5.83;;;;;;;14.57;71.35;100707.94;5052135;28;20207;-72
2022/06/05 04:45:58;;;;;;;6.97;6.47;;;;;;;14.60;70.84;100715.72;5051702;28;20718;-72
2022/06/05 04:48:24;;;;;;;6.03;5.63;;;;;;;14.64;70.59;100716.50;5051576;28;20676;-72
2022/06/05 04:50:51;;;;;;;6.90;6.30;;;;;;;14.67;71.09;100709.38;5051434;28;20245;-72
2022/06/05 04:53:17;;;;;;;6.43;5.93;;;;;;;14.70;71.25;100706.63;5051408;28;20269;-72
2022/06/05 04:55:43;;;;;;;6.77;6.13;;;;;;;14.75;71.22;100695.16;5051049;28;20757;-72
2022/06/05 04:58:11;;;;;;;6.73;6.23;;;;;;;14.80;71.61;100682.69;5051663;28;20207;-72
2022/06/05 05:00:39;;;;;;;6.17;5.77;;;;;;;14.86;71.84;100678.09;5050871;28;20203;-72
2022/06/05 05:03:06;;;;;;;6.40;5.90;;;;;;;14.91;72.25;100675.34;5051265;28;20542;-72
2022/06/05 05:05:34;;;;;;;7.03;6.53;;;;;;;14.96;72.90;100669.91;5050834;28;20222;-72
2022/06/05 05:08:01;;;;;;;6.47;6.07;;;;;;;15.04;72.25;100667.88;5051570;28;20281;-72
2022/06/05 05:10:27;;;;;;;6.63;6.13;;;;;;;15.09;72.40;100672.06;5050890;28;20207;-72
2022/06/05 05:12:54;;;;;;;6.83;6.43;;;;;;;15.19;72.51;100680.50;5051501;28;20204;-72
2022/06/05 05:15:22;;;;;;;6.80;6.30;;;;;;;15.27;72.55;100681.09;5050951;28;20239;-72
2022/06/05 05:17:48;;;;;;;7.13;6.53;;;;;;;15.31;72.01;100676.59;5051503;28;20211;-72
2022/06/05 05:20:15;;;;;;;7.60;7.00;;;;;;;15.38;71.87;100691.28;5054832;28;20204;-72
2022/06/05 05:22:41;;;;;;;7.03;6.53;;;;;;;15.46;71.72;100705.00;5054920;28;20242;-72
2022/06/05 05:25:10;;;;;;;6.73;6.23;;;;;;;15.54;72.06;100710.00;5055063;28;20219;-72
2022/06/05 05:27:37;;;;;;;6.83;6.33;;;;;;;15.61;71.95;100697.47;5055093;28;20262;-72
2022/06/05 05:30:06;;;;;;;6.77;6.27;;;;;;;15.68;71.59;100710.38;5046823;28;20207;-72
2022/06/05 05:32:34;;;;;;;6.70;6.27;;;;;;;15.78;71.23;100718.84;5055374;28;20198;-72
2022/06/05 05:35:01;;;;;;;6.47;5.97;;;;;;;15.85;70.75;100730.84;5054523;28;20231;-72
2022/06/05 05:37:27;;;;;;;7.27;6.70;;;;;;;15.90;70.34;100743.84;5055168;28;20254;-72
2022/06/05 05:42:38;;;;;;;7.00;6.50;;;;;;;16.02;70.60;100750.44;5054769;28;20300;-72
2022/06/05 05:45:05;;;;;;;8.63;6.63;;;;;;;16.11;70.48;100755.34;5054787;28;20231;-72
2022/06/05 05:47:34;;;;;;;7.07;6.67;;;;;;;16.17;70.73;100749.88;5054951;28;20242;-72
2022/06/05 05:50:03;;;;;;;7.10;6.60;;;;;;;16.26;70.62;100752.16;5054215;28;20257;-72
2022/06/05 05:52:30;;;;;;;7.00;6.60;;;;;;;16.34;70.21;100766.84;5054522;28;20262;-72
2022/06/05 05:54:57;;;;;;;6.90;6.50;;;;;;;16.39;70.44;100757.84;5054811;28;20255;-72
2022/06/05 05:57:24;;;;;;;7.27;6.87;;;;;;;16.46;70.51;100751.41;5054837;28;20783;-72
2022/06/05 05:59:51;;;;;;;7.03;6.47;;;;;;;16.54;70.97;100750.25;5054555;28;20213;-72
2022/06/05 06:02:21;;;;;;;6.17;5.77;;;;;;;16.60;71.53;100742.13;5055175;28;20203;-72
2022/06/05 06:04:51;;;;;;;7.70;7.20;;;;;;;16.67;71.87;100722.50;5054730;28;20228;-72
2022/06/05 06:07:18;;;;;;;6.40;6.00;;;;;;;16.79;70.21;100750.16;5054456;28;20276;-72
2022/06/05 06:09:45;;;;;;;6.83;6.33;;;;;;;16.85;70.20;100763.97;5054046;28;20201;-73
2022/06/05 06:12:12;;;;;;;7.40;6.80;;;;;;;16.91;69.92;100776.06;5054594;28;20261;-72
2022/06/05 06:14:40;;;;;;;7.30;6.80;;;;;;;17.03;69.83;100785.28;5054423;28;20703;-73
2022/06/05 06:17:07;;;;;;;6.43;6.03;;;;;;;17.10;70.31;100776.16;5054137;28;20220;-72
2022/06/05 06:19:34;;;;;;;7.10;6.50;;;;;;;17.20;69.83;100781.94;5053923;28;20208;-73
2022/06/05 06:22:02;;;;;;;6.80;6.20;;;;;;;17.22;70.34;100754.59;5053873;28;20208;-73
2022/06/05 06:24:28;;;;;;;6.93;6.47;;;;;;;17.32;69.09;100777.94;5053969;28;20224;-72
2022/06/05 06:26:55;;;;;;;7.03;6.53;;;;;;;17.40;69.05;100781.09;5053460;28;20574;-72
2022/06/05 06:29:21;;;;;;;6.53;6.00;;;;;;;17.46;68.17;100799.31;5053237;28;20552;-73
2022/06/05 06:31:48;;;;;;;6.83;6.33;;;;;;;17.54;68.49;100813.09;5053224;28;20204;-72
2022/06/05 06:34:14;;;;;;;6.83;6.33;;;;;;;17.58;68.25;100793.53;5053761;28;20228;-72
2022/06/05 06:36:41;;;;;;;6.67;6.17;;;;;;;17.65;68.04;100797.63;5053993;28;20224;-72
2022/06/05 06:39:09;;;;;;;7.60;7.00;;;;;;;17.72;68.16;100789.44;5053589;28;20715;-72
2022/06/05 06:41:39;;;;;;;7.47;6.93;;;;;;;17.78;68.25;100787.41;5053832;28;20237;-72
2022/06/05 06:44:06;;;;;;;7.43;6.93;;;;;;;17.85;67.65;100798.59;5053691;28;20200;-72
2022/06/05 06:46:36;;;;;;;7.47;6.87;;;;;;;17.91;68.12;100774.53;5053853;28;20252;-72
2022/06/05 06:49:02;;;;;;;6.50;6.10;;;;;;;17.97;67.20;100798.03;5053098;28;20206;-72
2022/06/05 06:51:29;;;;;;;7.30;6.80;;;;;;;18.01;67.57;100796.97;5053471;28;20216;-72
2022/06/05 06:53:55;;;;;;;7.17;6.67;;;;;;;18.06;67.56;100795.00;5053566;28;20267;-73
2022/06/05 06:56:27;;;;;;;7.70;7.20;;;;;;;18.14;67.65;100796.47;5053020;28;20276;-72
2022/06/05 06:58:54;;;;;;;6.50;6.10;;;;;;;18.20;66.77;100809.38;5052577;28;20300;-72
2022/06/05 07:01:20;;;;;;;7.10;6.60;;;;;;;18.26;67.44;100811.75;5052954;28;20209;-73
2022/06/05 07:03:47;;;;;;;6.53;6.13;;;;;;;18.36;67.33;100797.19;5048912;28;20262;-72
2022/06/05 07:06:15;;;;;;;7.20;6.70;;;;;;;18.39;66.57;100798.81;5053179;28;20224;-72
2022/06/05 07:08:44;;;;;;;6.87;6.40;;;;;;;18.46;66.71;100813.50;5053098;28;20204;-72
2022/06/05 07:11:12;;;;;;;7.20;6.80;;;;;;;18.53;66.33;100811.41;5053121;28;20204;-72
2022/06/05 07:13:40;;;;;;;8.60;7.33;;;;;;;18.57;65.94;100826.19;5053288;28;20250;-73
2022/06/05 07:16:08;;;;;;;6.90;6.30;;;;;;;18.62;66.18;100821.56;5053032;28;20286;-73
2022/06/05 07:18:35;;;;;;;6.73;6.33;;;;;;;18.70;65.91;100830.00;5053374;28;20250;-72
2022/06/05 07:21:07;;;;;;;6.90;6.50;;;;;;;18.77;66.03;100831.44;5052423;28;20198;-72
2022/06/05 07:23:33;;;;;;;6.47;6.07;;;;;;;18.82;66.32;100821.53;5053206;28;20201;-73
2022/06/05 07:26:00;;;;;;;6.57;6.03;;;;;;;18.92;65.75;100813.16;5052638;28;20606;-72
2022/06/05 07:28:26;;;;;;;6.00;5.70;;;;;;;19.00;65.73;100832.16;5044737;28;20259;-72
2022/06/05 07:30:54;;;;;;;5.90;5.60;;;;;;;19.05;64.89;100840.75;5052737;28;20208;-72
2022/06/05 07:33:21;;;;;;;6.80;6.40;;;;;;;19.08;65.30;100832.66;5053017;28;20850;-72
2022/06/05 07:35:55;;;;;;;6.20;5.60;;;;;;;19.16;65.37;100837.56;5052137;28;20283;-72
2022/06/05 07:38:22;;;;;;;6.20;5.80;;;;;;;19.22;64.93;100837.28;5052684;28;20204;-72
2022/06/05 07:40:48;;;;;;;7.00;6.40;;;;;;;19.32;65.15;100842.97;5052122;28;20205;-72
2022/06/05 07:43:15;;;;;;;6.87;6.37;;;;;;;19.40;64.27;100868.13;5052304;28;20286;-72
2022/06/05 07:45:44;;;;;;;6.33;5.83;;;;;;;19.50;64.09;100865.03;5052228;28;20702;-73
2022/06/05 07:48:12;;;;;;;6.43;6.03;;;;;;;19.61;64.41;100850.34;5051881;28;20207;-73
2022/06/05 07:54:26;;;;;;;6.37;5.93;;;;;;;19.70;64.39;100856.09;5052282;28;20255;-73
2022/06/05 07:56:10;;;;;;;6.10;5.70;;;;;;;19.86;64.11;100862.41;5051690;28;20354;-73
2022/06/05 07:58:36;;;;;;;6.47;6.00;;;;;;;19.98;63.00;100882.97;5052153;28;20209;-73
2022/06/05 08:01:03;;;;;;;5.53;5.23;;;;;;;20.08;62.38;100906.31;5053672;28;20209;-72
2022/06/05 08:03:30;;;;;;;6.50;6.00;;;;;;;20.18;62.19;100910.25;5052001;28;20214;-72
2022/06/05 08:05:57;;;;;;;6.30;5.80;;;;;;;20.27;61.61;100920.34;5052151;28;20623;-72
2022/06/05 08:08:23;;;;;;;6.63;6.13;;;;;;;20.32;61.24;100928.09;5051935;28;20656;-73
2022/06/05 08:10:50;;;;;;;6.30;5.93;;;;;;;20.38;61.41;100914.50;5051791;28;20194;-73
2022/06/05 08:13:16;;;;;;;6.70;6.20;;;;;;;20.47;60.53;100937.88;5049521;28;20202;-73
2022/06/05 08:15:44;;;;;;;6.30;5.90;;;;;;;20.53;61.10;100916.31;5048203;28;20232;-73
2022/06/05 08:18:10;;;;;;;6.77;6.20;;;;;;;20.62;60.79;100915.88;5048318;28;20213;-73
2022/06/05 08:20:39;;;;;;;6.67;6.27;;;;;;;20.73;60.86;100895.88;5047920;28;20201;-73
2022/06/05 08:23:05;;;;;;;6.60;6.20;;;;;;;20.80;61.53;100878.69;5048366;28;20210;-73
2022/06/05 08:25:32;;;;;;;6.83;6.33;;;;;;;20.89;59.93;100893.22;5048008;28;20221;-73
2022/06/05 08:27:58;;;;;;;6.93;6.30;;;;;;;20.96;60.06;100903.44;5048774;28;20210;-73
2022/06/05 08:30:25;;;;;;;6.93;6.43;;;;;;;21.07;60.14;100892.25;5050121;28;20729;-73
2022/06/05 08:32:51;;;;;;;7.30;6.80;;;;;;;21.11;59.34;100895.56;5051458;28;20208;-73
2022/06/05 08:35:17;;;;;;;6.63;6.23;;;;;;;21.16;58.92;100928.03;5050942;28;20566;-73
2022/06/05 08:43:39;;;;;;;6.40;6.10;;;;;;;21.33;59.24;100921.78;5020361;28;20202;-73
2022/06/05 08:46:12;;;;;;;6.63;6.13;;;;;;;21.36;59.11;100943.69;5042188;28;20228;-73
2022/06/05 08:48:43;;;;;;;7.30;6.60;;;;;;;21.39;60.46;100919.63;5051315;28;20199;-73
2022/06/05 08:51:22;;;;;;;7.37;6.90;;;;;;;21.43;59.09;100920.34;5051245;28;20204;-73
2022/06/05 08:53:54;;;;;;;7.03;6.50;;;;;;;21.47;58.39;100951.13;5050841;28;20251;-73
2022/06/05 08:56:30;;;;;;;7.53;7.03;;;;;;;21.46;58.03;100956.50;5051580;28;20237;-73
2022/06/05 08:59:01;;;;;;;6.97;6.53;;;;;;;21.45;58.00;100974.25;5051037;28;20255;-73
2022/06/05 09:01:36;;;;;;;7.37;6.77;;;;;;;21.49;57.68;100989.06;5051600;28;20201;-73
2022/06/05 09:04:13;;;;;;;6.87;6.27;;;;;;;21.50;57.99;100969.50;5043391;28;20354;-73
2022/06/05 09:06:45;;;;;;;6.63;6.13;;;;;;;21.56;57.80;100977.13;5051249;28;20647;-73
2022/06/05 09:09:17;;;;;;;9.20;6.83;;;;;;;21.59;58.23;100982.28;5043473;28;20221;-73
2022/06/05 09:11:49;;;;;;;6.17;5.77;;;;;;;21.68;58.66;100962.31;5051592;28;20202;-73
2022/06/05 09:14:29;;;;;;;7.40;6.70;;;;;;;21.74;57.85;100964.63;5043933;28;20270;-73
2022/06/05 09:17:01;;;;;;;7.30;6.70;;;;;;;21.78;58.21;100960.84;4351828;28;10000900;-73
2022/06/05 09:19:30;;;;;;;7.40;6.90;;;;;;;21.87;58.71;100938.19;5041555;28;20202;-73
2022/06/05 09:22:04;;;;;;;8.00;7.50;;;;;;;21.93;58.13;100929.84;5047045;28;20204;-73
2022/06/05 09:24:44;;;;;;;7.47;6.87;;;;;;;21.99;56.98;100952.56;5046334;28;20225;-73
2022/06/05 09:27:19;;;;;;;7.80;7.30;;;;;;;22.04;57.11;100961.13;5046619;28;20200;-73
2022/06/05 09:29:53;;;;;;;7.50;6.90;;;;;;;22.08;56.89;100975.09;5046643;28;20217;-73
2022/06/05 09:32:58;;;;;;;7.60;7.10;;;;;;;22.10;56.02;100984.72;5047229;28;20194;-73
2022/06/05 09:35:30;;;;;;;6.73;6.33;;;;;;;22.10;56.29;101000.66;4984320;28;20223;-73
2022/06/05 09:38:00;;;;;;;7.73;7.23;;;;;;;22.13;56.98;100986.31;5034146;28;20731;-73
2022/06/05 09:40:31;;;;;;;7.93;7.20;;;;;;;22.13;56.61;100963.25;5047866;28;20251;-73
2022/06/05 09:43:22;;;;;;;6.83;6.43;;;;;;;22.25;57.33;100942.22;5047765;28;20906;-73
2022/06/05 09:46:02;;;;;;;7.10;6.60;;;;;;;22.28;56.29;100980.13;5040758;28;20221;-73
2022/06/05 09:48:37;;;;;;;6.73;6.23;;;;;;;22.33;55.88;100964.75;5048306;28;20225;-73
2022/06/05 09:51:09;;;;;;;7.97;6.80;;;;;;;22.43;55.67;100970.38;5047582;28;20305;-73
2022/06/05 09:53:42;;;;;;;7.73;7.03;;;;;;;22.49;54.64;100993.94;5048029;28;20292;-73
2022/06/05 09:56:22;;;;;;;7.53;7.07;;;;;;;22.50;54.75;100992.16;5047448;28;20767;-73
2022/06/05 09:59:03;;;;;;;7.10;6.70;;;;;;;22.55;56.30;100951.00;5047485;28;20553;-73
2022/06/05 10:01:32;;;;;;;7.90;7.40;;;;;;;22.69;55.44;100941.31;5045733;28;20186;-73
2022/06/05 10:04:00;;;;;;;7.73;7.13;;;;;;;22.75;55.22;100959.56;5047744;28;20248;-73
2022/06/05 10:06:36;;;;;;;8.00;7.50;;;;;;;22.85;55.21;100958.03;5050281;28;20197;-73
2022/06/05 10:09:10;;;;;;;8.47;7.77;;;;;;;22.93;55.43;100986.84;5050988;28;20204;-73
2022/06/05 10:11:43;;;;;;;8.37;7.67;;;;;;;23.00;54.69;100958.91;5051420;28;20201;-73
2022/06/05 10:14:23;;;;;;;6.80;6.40;;;;;;;23.10;54.97;100968.06;5051318;28;20186;-73
2022/06/05 10:16:57;;;;;;;8.13;7.53;;;;;;;23.16;53.66;100978.31;5051353;28;20262;-73
2022/06/05 10:19:51;;;;;;;7.43;6.70;;;;;;;23.19;53.69;100985.25;5044393;28;20193;-73
2022/06/05 10:22:25;;;;;;;7.70;7.20;;;;;;;23.20;54.39;100997.63;5043052;28;20206;-73
2022/06/05 10:24:59;;;;;;;7.63;7.13;;;;;;;23.28;53.56;100994.47;5051633;28;20225;-73
2022/06/05 10:27:27;;;;;;;8.27;7.63;;;;;;;23.35;52.80;101006.47;5043537;28;20197;-73
2022/06/05 10:29:57;;;;;;;7.70;6.80;;;;;;;23.36;52.82;101016.16;5050743;28;20255;-73
2022/06/05 10:32:33;;;;;;;7.07;6.67;;;;;;;23.45;52.54;101018.25;5051155;28;20209;-73
2022/06/05 10:35:05;;;;;;;8.67;8.00;;;;;;;23.54;51.52;101011.47;5050991;28;20275;-73
2022/06/05 10:37:41;;;;;;;7.90;7.40;;;;;;;23.50;51.57;101042.78;5050505;28;20217;-73
2022/06/05 10:40:17;;;;;;;7.53;7.03;;;;;;;23.51;53.72;101009.00;5050967;28;20224;-73
2022/06/05 10:42:52;;;;;;;10.97;8.50;;;;;;;23.57;52.11;100981.97;5043299;28;20217;-73
2022/06/05 10:45:42;;;;;;;7.73;7.23;;;;;;;23.67;51.77;101012.41;5051162;28;20225;-73
2022/06/05 10:48:19;;;;;;;7.13;6.63;;;;;;;23.68;51.58;101005.25;5050953;28;20205;-73
2022/06/05 10:50:50;;;;;;;9.50;6.87;;;;;;;23.73;51.55;101005.81;5042653;28;20191;-73
2022/06/05 10:53:22;;;;;;;6.90;6.40;;;;;;;23.75;50.93;101004.75;5050544;28;20217;-73
2022/06/05 10:56:26;;;;;;;7.13;6.60;;;;;;;23.71;51.81;100987.25;5050291;28;20256;-73
2022/06/05 10:59:05;;;;;;;7.17;6.67;;;;;;;23.75;51.94;100953.25;5019189;28;20248;-73
2022/06/05 11:01:44;;;;;;;7.03;6.63;;;;;;;23.78;51.67;100993.94;5047931;28;20296;-73
2022/06/05 11:04:19;;;;;;;6.90;6.47;;;;;;;23.78;51.24;100998.38;5043922;28;20193;-73
2022/06/05 11:06:57;;;;;;;7.03;6.63;;;;;;;23.84;51.32;101005.13;5050135;28;20204;-73
2022/06/05 11:09:36;;;;;;;7.20;6.50;;;;;;;23.86;49.93;101021.88;5050075;28;20248;-73
2022/06/05 11:15:04;;;;;;;7.50;7.00;;;;;;;23.96;50.27;101020.31;5049972;28;20228;-73
2022/06/05 11:17:37;;;;;;;6.87;6.40;;;;;;;24.03;50.94;100988.78;5049976;28;20220;-73
2022/06/05 11:20:12;;;;;;;6.47;5.90;;;;;;;24.04;51.65;100980.66;5049281;28;20551;-73
2022/06/05 11:22:45;;;;;;;6.10;5.70;;;;;;;24.12;51.13;100988.13;5050171;28;20189;-73
2022/06/05 11:25:22;;;;;;;6.77;6.37;;;;;;;24.14;49.62;100991.56;5049741;28;20738;-73
2022/06/05 11:27:59;;;;;;;6.73;6.23;;;;;;;24.21;49.74;101018.69;5050104;28;20202;-73
2022/06/05 11:30:39;;;;;;;5.83;5.53;;;;;;;24.45;49.96;101013.50;5049685;28;20930;-73
2022/06/05 11:33:14;;;;;;;6.53;6.10;;;;;;;24.75;48.84;100995.41;5049692;28;20205;-73
2022/06/05 11:35:58;;;;;;;6.97;6.47;;;;;;;25.14;47.52;101025.63;5049571;28;20267;-73
2022/06/05 11:38:40;;;;;;;6.27;5.97;;;;;;;25.67;47.35;101052.16;5049316;28;20228;-73
2022/06/05 11:41:18;;;;;;;6.33;6.03;;;;;;;26.15;45.16;101067.41;5049588;28;20205;-73
2022/06/05 11:43:46;;;;;;;6.77;6.37;;;;;;;26.46;45.55;101121.31;5042464;28;20206;-74
2022/06/05 11:46:22;;;;;;;6.33;5.93;;;;;;;26.84;43.35;101144.38;5049806;28;20695;-73
2022/06/05 11:48:55;;;;;;;6.53;6.23;;;;;;;27.22;42.41;101173.59;5049526;28;20193;-74
2022/06/05 11:51:26;;;;;;;6.67;6.37;;;;;;;27.42;42.89;101184.63;5048903;28;20205;-74
2022/06/05 11:54:02;;;;;;;7.73;7.13;;;;;;;27.13;42.18;101187.69;5049567;28;20204;-74
2022/06/05 11:56:39;;;;;;;6.57;6.13;;;;;;;27.24;41.50;101190.44;5049266;28;20205;-73